Time;durP1;ratioP1;P1;durP2;ratioP2;P2;SDS_P1;SDS_P2;PMS_P1;PMS_P2;Temp;Humidity;BMP_temperature;BMP_pressure;BME280_temperature;BME280_humidity;BME280_pressure;Samples;Min_cycle;Max_cycle;Signal;HPM_P1;HPM_P2
2022/12/10 00:01:31;;;;;;;29.23;16.80;;;;;;;-1.68;98.64;101073.22;5033720;28;20480;-72
2022/12/10 00:03:58;;;;;;;27.33;17.60;;;;;;;-1.51;98.85;101105.44;5033676;28;20256;-74
2022/12/10 00:06:27;;;;;;;32.27;16.87;;;;;;;-1.47;98.82;101102.59;5033340;28;20331;-74
2022/12/10 00:08:53;;;;;;;34.33;19.50;;;;;;;-1.34;99.06;101111.53;5033494;28;20737;-72
2022/12/10 00:11:20;;;;;;;28.67;16.50;;;;;;;-1.32;98.24;101112.28;5033275;28;20317;-73
2022/12/10 00:13:47;;;;;;;28.23;17.17;;;;;;;-1.29;98.49;101113.91;5033454;28;20279;-72
2022/12/10 00:16:16;;;;;;;28.50;15.80;;;;;;;-1.21;97.62;101114.34;5033050;28;20306;-72
2022/12/10 00:18:42;;;;;;;;;;;;;;;-1.14;98.10;101126.19;5033733;28;20314;-72
2022/12/10 00:21:11;;;;;;;23.67;13.83;;;;;;;-1.25;96.74;101116.25;5015185;28;20011;-73
2022/12/10 00:23:37;;;;;;;;;;;;;;;-1.20;97.11;101136.94;5033478;28;20123;-71
2022/12/10 00:26:08;;;;;;;20.27;12.33;;;;;;;-1.26;96.60;101132.88;5032973;28;20353;-72
2022/12/10 00:28:34;;;;;;;20.40;14.13;;;;;;;-1.35;96.35;101142.97;5033028;28;20252;-73
2022/12/10 00:31:12;;;;;;;19.27;12.63;;;;;;;-1.49;97.06;101130.56;5033097;28;20264;-72
2022/12/10 00:33:38;;;;;;;18.03;11.80;;;;;;;-1.40;97.05;101155.41;5033000;28;20036;-72
2022/12/10 00:36:16;;;;;;;20.17;11.97;;;;;;;-1.37;97.26;101144.81;5033272;28;20268;-73
2022/12/10 00:38:42;;;;;;;19.20;12.40;;;;;;;-1.34;96.89;101147.25;5032883;28;20267;-73
2022/12/10 00:41:09;;;;;;;19.37;12.40;;;;;;;-1.28;96.44;101154.78;5032831;28;20041;-74
2022/12/10 00:43:35;;;;;;;20.67;12.07;;;;;;;-1.35;97.09;101148.19;5032668;28;20653;-71
2022/12/10 00:46:01;;;;;;;17.53;11.07;;;;;;;-1.36;97.02;101163.00;5032788;28;20264;-73
2022/12/10 00:48:26;;;;;;;16.37;10.83;;;;;;;-1.45;96.67;101158.22;5032545;28;20036;-72
2022/12/10 00:51:13;;;;;;;16.97;11.83;;;;;;;-1.51;96.96;101175.97;5032788;28;20021;-74
2022/12/10 00:53:40;;;;;;;19.53;12.93;;;;;;;-1.61;97.69;101171.22;5032793;28;20401;-73
2022/12/10 00:56:08;;;;;;;19.07;12.07;;;;;;;-1.54;98.06;101178.75;5032763;28;20744;-73
2022/12/10 00:58:35;;;;;;;19.17;11.03;;;;;;;-1.59;98.03;101178.97;5014817;28;20260;-72
2022/12/10 01:01:14;;;;;;;16.57;11.43;;;;;;;-1.61;98.08;101179.03;5032407;28;20256;-72
2022/12/10 01:03:40;;;;;;;16.60;10.47;;;;;;;-1.58;98.13;101181.50;5032772;28;20256;-73
2022/12/10 01:06:14;;;;;;;16.67;12.03;;;;;;;-1.61;98.13;101176.44;5032402;28;20724;-72
2022/12/10 01:08:39;;;;;;;15.40;10.97;;;;;;;-1.63;97.82;101180.88;5032420;28;20293;-72
2022/12/10 01:11:06;;;;;;;15.10;9.50;;;;;;;-1.62;97.08;101182.56;5032324;28;20350;-73
2022/12/10 01:13:31;;;;;;;12.90;10.17;;;;;;;-1.68;97.39;101182.88;5032318;28;20025;-73
2022/12/10 01:16:00;;;;;;;14.97;10.50;;;;;;;-1.62;96.99;101176.50;5032608;28;20259;-71
2022/12/10 01:18:27;;;;;;;12.53;9.17;;;;;;;-1.52;97.26;101182.97;5043231;28;20113;-74
2022/12/10 01:20:53;;;;;;;12.87;9.33;;;;;;;-1.45;96.97;101189.56;5054919;28;20287;-72
2022/12/10 01:23:19;;;;;;;14.80;10.23;;;;;;;-1.55;96.83;101167.44;5054850;28;20041;-73
2022/12/10 01:25:44;;;;;;;16.30;10.63;;;;;;;-1.37;96.58;101181.38;5048530;28;20034;-73
2022/12/10 01:28:10;;;;;;;13.63;8.90;;;;;;;-1.33;96.28;101190.75;5014509;28;20425;-73
2022/12/10 01:30:35;;;;;;;15.93;9.27;;;;;;;-1.33;96.08;101193.38;5032501;28;20022;-72
2022/12/10 01:33:01;;;;;;;13.80;9.67;;;;;;;-1.38;95.94;101183.16;5014796;28;20453;-73
2022/12/10 01:35:26;;;;;;;14.40;9.70;;;;;;;-1.35;96.16;101197.81;5032486;28;20033;-73
2022/12/10 01:37:52;;;;;;;13.70;10.67;;;;;;;-1.40;95.59;101192.81;5032173;28;20519;-72
2022/12/10 01:40:17;;;;;;;12.67;9.70;;;;;;;-1.31;96.25;101196.75;5036076;28;20013;-73
2022/12/10 01:42:43;;;;;;;14.63;9.97;;;;;;;-1.32;96.32;101197.66;5054625;28;20064;-72
2022/12/10 01:45:11;;;;;;;11.63;8.90;;;;;;;-1.44;95.14;101203.50;5050846;28;20034;-72
2022/12/10 01:47:37;;;;;;;13.23;9.65;;;;;;;-1.62;96.02;101198.25;5045170;28;20059;-72
2022/12/10 01:50:06;;;;;;;14.13;9.87;;;;;;;-1.80;96.93;101193.91;5035165;28;20029;-75
2022/12/10 01:52:31;;;;;;;;;;;;;;;-1.77;96.97;101209.41;5032533;28;20074;-73
2022/12/10 01:54:57;;;;;;;12.93;9.40;;;;;;;-1.85;97.38;101206.34;5031873;28;20253;-72
2022/12/10 01:57:26;;;;;;;11.37;8.77;;;;;;;-1.83;96.95;101207.09;5031817;28;20519;-72
2022/12/10 01:59:54;;;;;;;12.48;8.80;;;;;;;-1.78;96.87;101212.09;5031960;28;20041;-72
2022/12/10 02:02:30;;;;;;;13.63;9.38;;;;;;;-1.82;96.56;101211.41;5032198;28;20040;-73
2022/12/10 02:05:06;;;;;;;12.77;9.13;;;;;;;-1.88;97.45;101214.31;5032046;28;20066;-72
2022/12/10 02:08:08;;;;;;;19.37;8.77;;;;;;;-1.80;97.77;101214.78;5031450;28;20283;-71
2022/12/10 02:10:55;;;;;;;11.07;9.30;;;;;;;-1.83;98.17;101206.25;5031992;28;20350;-71
2022/12/10 02:13:41;;;;;;;12.13;7.70;;;;;;;-1.78;97.35;101215.56;5031831;28;20649;-72
2022/12/10 02:16:18;;;;;;;14.40;8.60;;;;;;;-1.78;97.67;101223.38;5031694;28;20294;-73
2022/12/10 02:18:58;;;;;;;14.27;8.93;;;;;;;-1.75;98.15;101204.13;5031745;28;20276;-71
2022/12/10 02:21:32;;;;;;;12.87;8.73;;;;;;;-1.63;97.86;101209.63;5031769;28;20302;-72
2022/12/10 02:24:04;;;;;;;11.83;8.47;;;;;;;-1.51;97.53;101208.16;5031416;28;20343;-77
2022/12/10 02:26:51;;;;;;;11.63;8.47;;;;;;;-1.45;96.51;101214.84;5031587;28;20331;-72
2022/12/10 02:29:20;;;;;;;12.02;7.78;;;;;;;-1.62;95.81;101203.47;5031670;28;20341;-72
2022/12/10 02:31:52;;;;;;;11.63;8.43;;;;;;;-1.76;95.86;101200.66;5031677;28;20033;-73
2022/12/10 02:34:19;;;;;;;11.47;8.77;;;;;;;-1.85;96.43;101195.88;5032929;28;20075;-73
2022/12/10 02:36:49;;;;;;;12.67;9.20;;;;;;;-1.82;97.33;101205.34;5035064;28;20728;-73
2022/12/10 02:39:20;;;;;;;12.43;8.17;;;;;;;-1.64;98.05;101212.31;5035576;28;20259;-73
2022/12/10 02:41:52;;;;;;;17.20;10.50;;;;;;;-1.58;97.66;101201.56;5035304;28;20344;-74
2022/12/10 02:44:21;;;;;;;11.83;8.83;;;;;;;-1.59;96.50;101202.47;5001155;28;20299;-73
2022/12/10 02:46:49;;;;;;;14.60;8.40;;;;;;;-1.55;97.61;101201.41;5035124;28;20296;-72
2022/12/10 02:49:17;;;;;;;12.10;8.18;;;;;;;-1.46;97.02;101211.38;5034938;28;20025;-72
2022/12/10 02:51:42;;;;;;;12.60;8.70;;;;;;;-1.41;96.59;101205.97;5034995;28;20454;-72
2022/12/10 02:54:42;;;;;;;12.80;10.17;;;;;;;-1.34;95.94;101213.41;5035093;28;20276;-73
2022/12/10 02:57:18;;;;;;;12.77;8.47;;;;;;;-1.38;96.00;101211.03;5035016;28;20166;-72
2022/12/10 02:59:49;;;;;;;12.87;8.93;;;;;;;-1.35;95.83;101226.56;5034839;28;20252;-72
2022/12/10 03:02:40;;;;;;;13.73;9.40;;;;;;;-1.40;95.99;101223.34;5034959;28;20261;-74
2022/12/10 03:05:46;;;;;;;16.43;9.47;;;;;;;-1.33;95.82;101224.72;5034861;28;20252;-74
2022/12/10 03:08:36;;;;;;;14.70;10.20;;;;;;;-1.44;95.63;101219.19;5017191;28;20418;-74
2022/12/10 03:11:16;;;;;;;12.07;8.20;;;;;;;-1.39;96.13;101235.47;5034823;28;20271;-72
2022/12/10 03:14:07;;;;;;;16.30;9.67;;;;;;;-1.39;96.06;101225.03;5034582;28;20608;-72
2022/12/10 03:16:39;;;;;;;13.97;9.93;;;;;;;-1.37;96.12;101234.47;5034532;28;20295;-71
2022/12/10 03:19:10;;;;;;;13.67;9.00;;;;;;;-1.30;96.84;101245.47;5034357;28;20368;-72
2022/12/10 03:21:40;;;;;;;16.77;10.53;;;;;;;-1.37;96.30;101237.09;5034849;28;20681;-73
2022/12/10 03:24:06;;;;;;;14.60;10.43;;;;;;;-1.41;96.49;101237.31;5034656;28;20268;-72
2022/12/10 03:26:33;;;;;;;12.00;8.40;;;;;;;-1.45;96.81;101240.97;5034585;28;20288;-73
2022/12/10 03:29:07;;;;;;;14.47;8.47;;;;;;;-1.46;96.93;101239.28;5034228;28;20326;-72
2022/12/10 03:31:35;;;;;;;14.30;9.43;;;;;;;-1.41;96.85;101237.31;5034486;28;20699;-74
2022/12/10 03:34:02;;;;;;;18.00;9.77;;;;;;;-1.37;96.67;101249.31;5016683;28;20671;-72
2022/12/10 03:36:29;;;;;;;14.47;8.63;;;;;;;-1.47;96.20;101222.75;5016573;28;20256;-72
2022/12/10 03:38:56;;;;;;;13.07;9.03;;;;;;;-1.42;95.51;101248.69;5016496;28;20260;-73
2022/12/10 03:41:22;;;;;;;17.30;10.63;;;;;;;-1.45;95.50;101252.28;5033880;28;20322;-72
2022/12/10 03:43:56;;;;;;;12.97;10.10;;;;;;;-1.51;95.79;101251.72;5033912;28;20253;-74
2022/12/10 03:46:28;;;;;;;16.50;10.23;;;;;;;-1.61;95.44;101257.41;5033537;28;20437;-72
2022/12/10 03:48:54;;;;;;;16.47;10.57;;;;;;;-1.76;96.30;101252.88;5033959;28;20318;-73
2022/12/10 03:51:20;;;;;;;19.17;10.33;;;;;;;-1.85;96.40;101274.22;5033789;28;20252;-73
2022/12/10 03:53:48;;;;;;;21.17;12.37;;;;;;;-1.86;97.38;101272.50;5033711;28;20252;-72
2022/12/10 03:56:14;;;;;;;19.93;11.37;;;;;;;-1.94;97.03;101272.03;5033928;28;20267;-74
2022/12/10 03:58:40;;;;;;;17.97;10.63;;;;;;;-1.94;97.13;101277.25;5033862;28;20260;-73
2022/12/10 04:01:07;;;;;;;18.60;11.50;;;;;;;-1.93;97.63;101284.16;5015945;28;20260;-70
2022/12/10 04:03:37;;;;;;;17.10;11.30;;;;;;;-1.99;97.22;101263.56;5033708;28;20025;-72
2022/12/10 04:06:04;;;;;;;18.27;10.53;;;;;;;-1.85;97.50;101278.59;5016105;28;20843;-72
2022/12/10 04:08:29;;;;;;;15.63;10.90;;;;;;;-1.75;97.92;101275.47;5033365;28;20365;-73
2022/12/10 04:10:55;;;;;;;17.87;11.30;;;;;;;-1.71;97.37;101266.59;5033739;28;20721;-73
2022/12/10 04:18:50;;;;;;;18.53;12.00;;;;;;;-1.91;97.56;101270.13;5033387;28;20672;-72
2022/12/10 04:26:51;;;;;;;;;;;;;;;-1.67;96.82;101304.69;4987463;28;20292;-71
2022/12/10 04:29:20;;;;;;;16.90;10.68;;;;;;;-1.66;96.19;101306.41;5033008;28;20261;-72
2022/12/10 04:31:46;;;;;;;18.27;12.60;;;;;;;-1.76;95.55;101309.47;5033364;28;20128;-71
2022/12/10 04:34:11;;;;;;;22.87;12.13;;;;;;;-1.89;96.01;101311.81;5032999;28;20155;-73
2022/12/10 04:36:37;;;;;;;25.63;13.63;;;;;;;-2.01;96.65;101299.34;5033601;28;20151;-73
2022/12/10 04:39:03;;;;;;;20.10;13.13;;;;;;;-2.03;97.30;101290.69;5033526;28;20017;-72
2022/12/10 04:41:29;;;;;;;23.17;14.23;;;;;;;-1.98;97.05;101312.25;5034058;28;20111;-73
2022/12/10 04:43:54;;;;;;;22.77;13.80;;;;;;;-2.04;96.32;101309.88;5018416;28;20677;-72
2022/12/10 04:46:20;;;;;;;22.93;15.53;;;;;;;-2.09;96.65;101310.09;5033139;28;20561;-72
2022/12/10 04:48:45;;;;;;;28.67;16.33;;;;;;;-2.26;96.31;101310.88;5032982;28;20123;-72
2022/12/10 04:51:11;;;;;;;25.83;15.20;;;;;;;-2.53;97.56;101306.84;5015365;28;20048;-72
2022/12/10 04:53:36;;;;;;;23.33;16.07;;;;;;;-2.50;99.08;101317.13;5035024;28;20088;-72
2022/12/10 04:56:05;;;;;;;23.80;15.60;;;;;;;-2.51;99.34;101326.72;5033711;28;20025;-69
2022/12/10 04:58:32;;;;;;;26.80;16.58;;;;;;;-2.57;98.73;101320.94;5039851;28;20029;-72
2022/12/10 05:01:06;;;;;;;25.70;15.53;;;;;;;-2.51;98.87;101331.09;5038542;28;20071;-72
2022/12/10 05:03:34;;;;;;;27.23;17.33;;;;;;;-2.57;98.30;101323.53;5018698;28;20359;-71
2022/12/10 05:06:11;;;;;;;28.63;16.83;;;;;;;-2.63;99.01;101327.22;5034854;28;20033;-73
2022/12/10 05:08:38;;;;;;;26.27;18.27;;;;;;;-2.85;99.09;101303.84;5033882;28;20735;-71
2022/12/10 05:11:12;;;;;;;33.85;19.40;;;;;;;-2.73;100.00;101335.50;5032681;28;20025;-72
2022/12/10 05:13:38;;;;;;;27.63;17.65;;;;;;;-2.69;100.00;101337.06;5033260;28;20132;-71
2022/12/10 05:16:06;;;;;;;29.53;18.60;;;;;;;-2.78;100.00;101307.03;5032805;28;20026;-73
2022/12/10 05:18:33;;;;;;;26.93;16.50;;;;;;;-2.45;100.00;101337.81;5032814;28;20383;-72
2022/12/10 05:21:01;;;;;;;27.38;17.08;;;;;;;-2.40;99.97;101331.47;5032774;28;20291;-73
2022/12/10 05:23:29;;;;;;;28.10;17.20;;;;;;;-2.38;99.62;101331.41;5032880;28;20037;-73
2022/12/10 05:26:02;;;;;;;28.35;17.45;;;;;;;-2.40;99.67;101336.69;5033285;28;20278;-73
2022/12/10 05:28:32;;;;;;;26.50;17.03;;;;;;;-2.40;98.87;101336.69;5033196;28;20075;-73
2022/12/10 05:30:58;;;;;;;29.53;16.53;;;;;;;-2.38;99.15;101341.84;5016007;28;20287;-72
2022/12/10 05:33:25;;;;;;;24.70;15.73;;;;;;;-2.30;99.27;101343.22;5032560;28;20334;-71
2022/12/10 05:35:59;;;;;;;27.77;16.43;;;;;;;-2.35;98.16;101331.28;5032672;28;20696;-73
2022/12/10 05:38:26;;;;;;;29.30;17.13;;;;;;;-2.43;97.03;101336.81;5033787;28;20021;-74
2022/12/10 05:40:51;;;;;;;29.00;17.23;;;;;;;-2.64;97.91;101333.34;5034742;28;20309;-72
2022/12/10 05:43:17;;;;;;;29.23;17.43;;;;;;;-2.67;98.11;101340.47;5034058;28;20259;-71
2022/12/10 05:45:43;;;;;;;29.20;16.53;;;;;;;-2.57;98.94;101342.63;5017415;28;20190;-75
2022/12/10 05:48:13;;;;;;;27.60;16.50;;;;;;;-2.46;98.17;101343.94;5035071;28;20405;-72
2022/12/10 05:50:40;;;;;;;24.77;16.17;;;;;;;-2.42;97.96;101351.56;5033607;28;20372;-73
2022/12/10 05:53:05;;;;;;;28.73;18.50;;;;;;;-2.50;97.45;101354.50;5032539;28;20627;-74
2022/12/10 05:55:32;;;;;;;24.60;15.23;;;;;;;-2.62;97.49;101343.72;5032839;28;20259;-72
2022/12/10 05:57:59;;;;;;;29.00;16.20;;;;;;;-2.70;98.46;101348.41;5033507;28;20029;-74
2022/12/10 06:00:26;;;;;;;25.97;18.53;;;;;;;-2.73;98.33;101352.00;5033172;28;20268;-74
2022/12/10 06:02:52;;;;;;;24.40;14.73;;;;;;;-2.70;98.82;101353.63;5044359;28;20286;-74
2022/12/10 06:05:17;;;;;;;27.80;17.23;;;;;;;-2.64;98.47;101356.81;5051682;28;20248;-72
2022/12/10 06:07:43;;;;;;;27.87;17.33;;;;;;;-2.66;97.52;101355.19;5051415;28;20044;-71
2022/12/10 06:10:09;;;;;;;26.73;16.93;;;;;;;-2.77;97.70;101349.59;5052311;28;20033;-71
2022/12/10 06:12:35;;;;;;;37.63;20.73;;;;;;;-2.86;97.59;101343.84;5043752;28;20115;-73
2022/12/10 06:15:00;;;;;;;32.57;18.37;;;;;;;-3.03;97.92;101341.06;5036457;28;20331;-75
2022/12/10 06:17:25;;;;;;;33.23;18.67;;;;;;;-3.12;98.60;101357.09;5036609;28;20025;-73
2022/12/10 06:19:53;;;;;;;38.13;19.83;;;;;;;-3.23;100.00;101356.63;5036866;28;20049;-75
2022/12/10 06:22:19;;;;;;;29.58;16.45;;;;;;;-3.24;100.00;101365.38;5038799;28;20114;-75
2022/12/10 06:24:44;;;;;;;36.67;20.45;;;;;;;-3.15;100.00;101357.22;5020126;28;20048;-74
2022/12/10 06:27:10;;;;;;;30.37;19.07;;;;;;;-2.96;100.00;101359.91;5039197;28;20429;-74
2022/12/10 06:29:35;;;;;;;37.47;21.30;;;;;;;-2.88;100.00;101363.91;5035542;28;20029;-74
2022/12/10 06:32:01;;;;;;;35.60;21.50;;;;;;;-2.84;99.97;101373.31;5031117;28;20060;-76
2022/12/10 06:34:27;;;;;;;39.67;20.50;;;;;;;-2.84;99.83;101365.50;5048384;28;20037;-75
2022/12/10 06:36:53;;;;;;;36.97;22.60;;;;;;;-2.94;99.64;101364.16;5020607;28;20263;-74
2022/12/10 06:39:33;;;;;;;39.27;21.80;;;;;;;-3.07;99.85;101365.56;5035596;28;20465;-77
2022/12/10 06:42:05;;;;;;;48.10;23.55;;;;;;;-3.06;100.00;101377.69;5035750;28;20190;-77
2022/12/10 06:52:33;;;;;;;44.67;24.67;;;;;;;-3.08;100.00;101376.91;4933813;29;20086;-80
2022/12/10 06:54:58;;;;;;;45.60;25.83;;;;;;;-3.32;100.00;101333.56;4943303;28;20039;-75
2022/12/10 06:57:24;;;;;;;45.07;23.20;;;;;;;-3.11;100.00;101377.00;4973863;28;20274;-81
2022/12/10 06:59:49;;;;;;;44.70;23.67;;;;;;;-3.20;100.00;101382.56;5018151;28;20029;-80
2022/12/10 07:02:15;;;;;;;37.90;20.07;;;;;;;-3.36;100.00;101378.88;5038660;28;20068;-78
2022/12/10 07:04:40;;;;;;;31.13;18.50;;;;;;;-3.55;100.00;101382.16;5037284;28;20368;-79
2022/12/10 07:07:06;;;;;;;28.23;16.80;;;;;;;-3.63;100.00;101389.44;5036313;28;20409;-78
2022/12/10 07:09:33;;;;;;;31.17;16.67;;;;;;;-3.64;100.00;101376.47;5035129;28;20029;-79
2022/12/10 07:11:59;;;;;;;31.63;17.45;;;;;;;-3.76;100.00;101372.53;5034523;28;20089;-73
2022/12/10 07:14:24;;;;;;;31.97;19.17;;;;;;;-3.73;100.00;101395.88;5034820;28;20121;-75
2022/12/10 07:16:50;;;;;;;32.17;17.97;;;;;;;-4.00;100.00;101378.66;5034493;28;20524;-73
2022/12/10 07:19:16;;;;;;;35.13;18.63;;;;;;;-4.28;100.00;101350.19;5015998;28;20088;-78
2022/12/10 07:22:01;;;;;;;36.17;20.20;;;;;;;-4.03;100.00;101394.41;5033732;28;20034;-79
2022/12/10 07:24:26;;;;;;;36.58;18.23;;;;;;;-4.15;100.00;101386.09;5034196;28;20048;-76
2022/12/10 07:26:52;;;;;;;27.60;15.80;;;;;;;-3.98;100.00;101402.88;5034323;28;20030;-82
2022/12/10 07:29:20;;;;;;;31.27;19.17;;;;;;;-3.84;100.00;101398.00;5017334;28;20551;-73
2022/12/10 07:31:47;;;;;;;38.22;17.33;;;;;;;-3.63;100.00;101399.84;5034179;28;20033;-71
2022/12/10 07:34:14;;;;;;;31.08;16.58;;;;;;;-3.49;100.00;101407.13;5034187;28;20474;-71
2022/12/10 07:36:40;;;;;;;29.67;17.27;;;;;;;-3.40;100.00;101400.75;5033742;28;20048;-73
2022/12/10 07:39:08;;;;;;;34.38;19.58;;;;;;;-3.46;100.00;101401.81;5033808;28;20064;-75
2022/12/10 07:41:34;;;;;;;33.10;19.05;;;;;;;-3.57;100.00;101410.03;5034971;28;20022;-74
2022/12/10 07:44:00;;;;;;;32.88;18.88;;;;;;;-3.58;100.00;101410.94;5034719;28;20028;-76
2022/12/10 07:46:29;;;;;;;28.87;16.03;;;;;;;-3.53;100.00;101421.16;5033986;28;20029;-75
2022/12/10 07:48:55;;;;;;;31.30;17.08;;;;;;;-3.47;100.00;101419.22;5036278;28;20033;-76
2022/12/10 07:51:22;;;;;;;35.30;18.60;;;;;;;-3.44;100.00;101421.69;5038406;28;20488;-73
2022/12/10 07:53:57;;;;;;;30.65;18.02;;;;;;;-3.32;100.00;101424.72;5039692;28;20029;-77
2022/12/10 07:56:27;;;;;;;31.27;17.42;;;;;;;-3.19;100.00;101425.94;5010640;28;20029;-75
2022/12/10 07:58:53;;;;;;;37.03;19.58;;;;;;;-3.15;100.00;101415.38;5041985;28;20466;-74
2022/12/10 08:01:25;;;;;;;30.63;19.08;;;;;;;-3.11;100.00;101426.53;5036381;28;20126;-79
2022/12/10 08:03:51;;;;;;;32.28;18.08;;;;;;;-3.14;100.00;101434.47;5035637;28;20036;-75
2022/12/10 08:06:19;;;;;;;30.83;16.88;;;;;;;-3.10;100.00;101432.59;5049846;28;20018;-76
2022/12/10 08:08:48;;;;;;;28.30;16.98;;;;;;;-3.04;100.00;101441.00;5055621;28;20017;-77
2022/12/10 08:11:23;;;;;;;32.17;17.27;;;;;;;-3.00;100.00;101434.75;5047053;28;20033;-76
2022/12/10 08:13:52;;;;;;;28.15;18.13;;;;;;;-2.95;100.00;101432.81;5037116;28;20219;-77
2022/12/10 08:16:33;;;;;;;31.03;17.27;;;;;;;-2.88;99.58;101434.28;5034943;28;20025;-79
2022/12/10 08:19:02;;;;;;;30.33;18.08;;;;;;;-3.03;97.95;101427.06;5015987;28;20292;-74
2022/12/10 08:21:29;;;;;;;27.80;17.55;;;;;;;-3.10;98.94;101425.63;5033225;28;20445;-76
2022/12/10 08:23:55;;;;;;;61.40;28.13;;;;;;;-3.14;100.00;101434.47;5015546;28;20033;-72
2022/12/10 08:26:27;;;;;;;58.83;29.43;;;;;;;-3.04;99.82;101435.78;5015372;28;20415;-74
2022/12/10 08:28:54;;;;;;;53.75;29.73;;;;;;;-3.05;98.94;101428.88;5033005;28;20270;-72
2022/12/10 08:31:21;;;;;;;51.65;24.63;;;;;;;-3.03;98.81;101432.28;5032735;28;20032;-73
2022/12/10 08:33:47;;;;;;;52.63;28.43;;;;;;;-3.18;99.23;101404.19;5033207;28;20095;-72
2022/12/10 08:36:14;;;;;;;33.23;20.07;;;;;;;-3.06;99.10;101429.78;5032940;28;20703;-71
2022/12/10 08:38:41;;;;;;;;;;;;;;;-3.08;99.06;101429.00;5015280;28;20037;-72
2022/12/10 08:41:10;;;;;;;26.37;17.57;;;;;;;-3.23;99.22;101426.97;5033072;28;19909;-71
2022/12/10 08:43:36;;;;;;;26.30;15.20;;;;;;;-3.32;98.59;101414.31;5032681;28;20029;-68
2022/12/10 08:46:02;;;;;;;18.92;14.30;;;;;;;-3.34;96.79;101422.19;5032797;28;20075;-70
2022/12/10 08:48:28;;;;;;;20.58;14.75;;;;;;;-3.38;97.35;101441.44;5032735;28;20187;-69
2022/12/10 08:50:53;;;;;;;22.40;14.53;;;;;;;-3.40;97.05;101445.88;5032714;28;20116;-71
2022/12/10 08:53:19;;;;;;;23.27;15.77;;;;;;;-3.44;98.84;101439.06;5032196;28;20048;-71
2022/12/10 08:55:44;;;;;;;22.33;13.87;;;;;;;-3.35;98.10;101448.28;5014127;28;20021;-72
2022/12/10 08:58:10;;;;;;;19.47;13.37;;;;;;;-3.42;97.38;101439.00;5032642;28;20483;-72
2022/12/10 09:00:37;;;;;;;21.90;15.07;;;;;;;-3.59;97.90;101443.06;5032994;28;20028;-78
2022/12/10 09:03:03;;;;;;;26.13;16.83;;;;;;;-4.05;98.52;101399.63;5032582;28;20111;-73
2022/12/10 09:05:29;;;;;;;26.00;16.42;;;;;;;-3.76;99.43;101448.03;5032317;28;20048;-72
2022/12/10 09:07:54;;;;;;;30.57;16.73;;;;;;;-3.70;99.90;101455.63;5014525;28;20022;-72
2022/12/10 09:10:21;;;;;;;24.67;16.17;;;;;;;-3.63;98.96;101456.25;5032570;28;20032;-74
2022/12/10 09:12:47;;;;;;;22.40;14.60;;;;;;;-3.81;100.00;101431.72;5032282;28;20040;-70
2022/12/10 09:15:12;;;;;;;20.97;14.03;;;;;;;-3.57;99.39;101456.88;5033316;28;20021;-71
2022/12/10 09:17:38;;;;;;;21.47;13.73;;;;;;;-3.57;98.04;101456.88;5014545;28;20022;-70
2022/12/10 09:20:06;;;;;;;20.87;14.10;;;;;;;-3.68;98.73;101439.97;5010560;28;20068;-71
2022/12/10 09:22:36;;;;;;;17.20;12.55;;;;;;;-3.54;98.29;101461.97;5010967;28;20034;-69
2022/12/10 09:25:04;;;;;;;16.23;11.90;;;;;;;-3.45;98.26;101460.81;5010866;28;20037;-72
2022/12/10 09:27:30;;;;;;;19.10;12.30;;;;;;;-3.28;97.84;101452.34;5012366;28;20354;-76
2022/12/10 09:29:56;;;;;;;20.20;14.20;;;;;;;-3.31;96.29;101444.66;5012390;28;20558;-74
2022/12/10 09:32:22;;;;;;;20.40;14.10;;;;;;;-3.38;96.56;101456.22;5012886;28;20014;-70
2022/12/10 09:34:51;;;;;;;19.07;13.43;;;;;;;-3.50;97.08;101467.91;5012069;28;20040;-70
2022/12/10 09:37:16;;;;;;;23.00;14.48;;;;;;;-3.63;98.93;101441.50;5008877;28;20034;-71
2022/12/10 09:39:42;;;;;;;21.70;14.45;;;;;;;-3.52;97.62;101454.09;5012272;28;20097;-72
2022/12/10 09:42:45;;;;;;;22.20;14.20;;;;;;;-3.59;97.82;101461.31;5013888;28;20069;-75
2022/12/10 09:45:32;;;;;;;21.27;13.07;;;;;;;-3.51;98.91;101466.22;5019203;28;20044;-74
2022/12/10 09:48:00;;;;;;;23.10;14.43;;;;;;;-3.33;98.17;101460.34;5021138;28;20030;-74
2022/12/10 09:50:31;;;;;;;20.27;11.85;;;;;;;-3.17;98.05;101465.84;5019726;28;20030;-72
2022/12/10 09:53:01;;;;;;;25.45;16.10;;;;;;;-3.08;97.60;101457.66;5020668;28;20116;-73
2022/12/10 09:55:42;;;;;;;26.02;15.48;;;;;;;-3.01;96.74;101461.72;5018141;28;20029;-72
2022/12/10 09:58:24;;;;;;;29.30;16.42;;;;;;;-3.09;96.89;101448.16;5019170;28;20034;-73
2022/12/10 10:01:02;;;;;;;28.05;17.27;;;;;;;-3.00;97.23;101455.59;5018779;28;20113;-74
2022/12/10 10:03:32;;;;;;;24.30;15.55;;;;;;;-3.03;96.78;101463.53;5019034;28;20065;-76
2022/12/10 10:05:58;;;;;;;25.75;16.58;;;;;;;-3.10;97.32;101450.81;5018530;28;20452;-72
2022/12/10 10:08:36;;;;;;;25.23;16.00;;;;;;;-3.04;97.03;101458.41;5018418;28;20030;-73
2022/12/10 10:11:02;;;;;;;26.08;17.35;;;;;;;-3.15;97.11;101453.59;5018427;28;20064;-69
2022/12/10 10:13:39;;;;;;;29.83;17.92;;;;;;;-3.09;97.76;101458.56;5018183;28;20492;-73
2022/12/10 10:16:45;;;;;;;24.70;17.10;;;;;;;-2.85;98.35;101460.25;5018312;28;20026;-70
2022/12/10 10:19:25;;;;;;;26.13;16.30;;;;;;;-2.77;97.00;101459.09;5001997;28;20283;-73
2022/12/10 10:21:52;;;;;;;29.85;18.17;;;;;;;-2.89;96.56;101460.41;5018413;28;20358;-72
2022/12/10 10:24:21;;;;;;;27.95;18.65;;;;;;;-3.13;97.21;101451.78;5018442;28;20041;-70
2022/12/10 10:26:47;;;;;;;30.58;19.55;;;;;;;-3.07;98.52;101467.19;5018350;28;20384;-72
2022/12/10 10:29:26;;;;;;;32.20;19.20;;;;;;;-3.14;98.47;101461.38;5018341;28;20029;-74
2022/12/10 10:32:10;;;;;;;27.85;18.80;;;;;;;-3.24;97.82;101482.59;5018238;28;20022;-74
2022/12/10 10:34:39;;;;;;;29.70;18.38;;;;;;;-3.31;98.60;101478.53;5018442;28;20026;-70
2022/12/10 10:37:05;;;;;;;30.75;18.38;;;;;;;-3.37;98.66;101478.75;5018402;28;20029;-71
2022/12/10 10:39:35;;;;;;;32.33;20.20;;;;;;;-3.51;99.59;101464.47;5018385;28;20029;-72
2022/12/10 10:42:28;;;;;;;28.90;18.75;;;;;;;-3.49;99.79;101493.06;5018697;28;20056;-71
2022/12/10 10:44:54;;;;;;;32.90;19.20;;;;;;;-3.61;100.00;101481.34;5017578;28;20033;-70
2022/12/10 10:47:34;;;;;;;31.23;20.53;;;;;;;-3.54;100.00;101488.00;5019561;28;20496;-71
2022/12/10 10:50:02;;;;;;;27.50;17.58;;;;;;;-3.50;100.00;101476.56;5017980;28;20022;-68
2022/12/10 10:52:34;;;;;;;30.75;18.52;;;;;;;-3.25;100.00;101496.53;5018489;28;20026;-69
2022/12/10 10:55:00;;;;;;;29.58;19.27;;;;;;;-3.19;100.00;101493.69;5013948;28;20121;-71
2022/12/10 10:57:43;;;;;;;30.03;19.07;;;;;;;-3.19;99.38;101485.88;5014944;28;20168;-71
2022/12/10 11:00:24;;;;;;;29.52;18.92;;;;;;;-3.23;99.34;101497.31;5014688;28;20029;-68
2022/12/10 11:02:50;;;;;;;38.55;20.75;;;;;;;-3.35;99.27;101477.78;5013521;28;20033;-71
2022/12/10 11:05:25;;;;;;;29.87;19.77;;;;;;;-3.44;99.21;101492.00;5014598;28;20032;-72
2022/12/10 11:07:58;;;;;;;30.83;19.60;;;;;;;-3.55;100.00;101496.72;5016167;28;20029;-71
2022/12/10 11:10:25;;;;;;;29.77;19.83;;;;;;;-3.57;100.00;101488.13;5025481;28;20378;-72
2022/12/10 11:13:25;;;;;;;32.03;19.58;;;;;;;-3.46;100.00;101499.03;5025043;28;20076;-72
2022/12/10 11:16:14;;;;;;;27.48;17.15;;;;;;;-3.48;100.00;101498.19;5022494;28;20124;-71
2022/12/10 11:18:55;;;;;;;28.45;18.60;;;;;;;-3.66;100.00;101493.66;5013581;28;20050;-71
2022/12/10 11:21:21;;;;;;;21.90;15.07;;;;;;;-3.68;100.00;101495.47;5014365;28;20038;-70
2022/12/10 11:23:55;;;;;;;28.95;17.67;;;;;;;-3.74;100.00;101490.50;5014299;28;20458;-71
2022/12/10 11:26:33;;;;;;;22.65;15.57;;;;;;;-3.77;100.00;101498.38;5014838;28;20058;-70
2022/12/10 11:29:10;;;;;;;22.10;14.90;;;;;;;-3.86;100.00;101491.75;5014688;28;20136;-69
2022/12/10 11:32:00;;;;;;;21.00;15.27;;;;;;;-3.96;100.00;101498.19;5015508;28;20029;-70
2022/12/10 11:34:49;;;;;;;22.95;15.30;;;;;;;-3.97;100.00;101488.69;5017523;28;20025;-71
2022/12/10 11:37:36;;;;;;;23.67;15.85;;;;;;;-3.84;100.00;101494.31;5027528;28;20489;-76
2022/12/10 11:40:32;;;;;;;22.73;15.07;;;;;;;-3.77;100.00;101496.63;5026328;28;20381;-69
2022/12/10 11:43:28;;;;;;;23.40;14.00;;;;;;;-3.76;100.00;101487.94;5013942;28;20045;-69